Burak Celik

Ojeador - Trabzonspor
22 Feb 2028
Martes
Continuar

Personalidad

Adaptabilidad (11) Ambición (10) Controversia (8) Lealtad (3) Presión (17) Profesionalismo (1) Deportividad (9) Temperamento (13)

Perfil

Estilo de dirección Democrático
Licencia Continental C
Determinación 15
Gestión de personas 10
Motivación 8
Disciplina 11
Satisfacción laboral
100%
Fatiga
0%
Cargo Ojeador
Salario 85.1K p/s
Contrato 14.03.2029

Rendimiento

Comportamiento Bueno
Efectividad del entrenamiento
50%
Desarrollo de jugadores
70%
Prevención de lesiones
60%
Implementación táctica
40%

Eventos recientes

Evaluó a un jugador ahora
Asistió a una reunión de captación ahora
Recomendó un objetivo de fichaje ahora
Recomendó un objetivo de fichaje 7d atrás
Evaluó a un jugador 7d atrás
Evaluó a un jugador 7d atrás
Evaluó a un jugador 7d atrás
Evaluó a un jugador 7d atrás

Actualmente siguiendo

182
Jugador Club Estado Habilidad Confianza Observado Última observación Último voto
Christos Mouzakitis Hull City Activo 142 / 135 40% 5 21.02.2028 -
Pape Diong Westerlo Activo 117 / 134 40% 5 21.02.2028 -
Saman Rezaeian Gostaresh Foulad Activo 118 / 122 40% 3 21.02.2028 -
Gopolang Taunyane CR Belouizdad Activo 108 / 106 40% 1 19.02.2028 -
Zane Albarus Cambridge United Activo 100 / 115 40% 1 19.02.2028 -
Jan Bürger Gillingham Activo 116 / 126 40% 1 19.02.2028 -
Buba Sangaré Elche Activo 132 / 134 40% 2 18.02.2028 -
Salvador Blopá Casa Pia Activo 114 / 130 40% 2 18.02.2028 -
Noahkai Banks Hamburger SV Activo 143 / 148 40% 1 18.02.2028 -
Trey Nyoni Rotherham United Activo 148 / 138 40% 5 17.02.2028 -
Jorge Salinas Racing Santander Activo 127 / 133 40% 4 17.02.2028 -
Jorthy Mokio ADO Den Haag Activo 137 / 140 40% 2 15.02.2028 -
Majid Rezaeian Rah Ahan Activo 100 / 118 40% 2 15.02.2028 -
Ismail Al Suwaidi Al Fujairah Activo 116 / 136 40% 1 15.02.2028 -
Esquerdinha Shrewsbury Town Activo 127 / 132 40% 4 10.02.2028 -
Khalis Merah Toulouse FC Activo 129 / 144 40% 3 10.02.2028 -
Rodrigo Garro Corinthians Activo 149 / 147 40% 2 09.02.2028 -
Patrik Wålemark Lech Activo 141 / 130 40% 2 09.02.2028 -
Jesús Ricardo Angulo Toluca Activo 129 / 145 40% 1 09.02.2028 -
Lucas Assadi AIK Activo 129 / 126 40% 2 08.02.2028 -
Arnaut Danjuma Valencia Activo 140 / 135 40% 1 08.02.2028 -
Christian Krasnodar Activo 149 / 134 40% 2 07.02.2028 -
Ernie Weaver AFC Wimbledon Activo 114 / 126 40% 4 07.02.2028 -
Brooke Norton-Cuffy Inter Miami CF Activo 134 / 137 40% 1 07.02.2028 -
Semih Kılıçsoy Besiktas Activo 138 / 130 40% 1 07.02.2028 -
Pablo Solari Galatasaray Activo 143 / 131 40% 1 05.02.2028 -
Sorba Thomas Stoke City Activo 147 / 127 40% 1 05.02.2028 -
Moustapha Sémbène Hajer Activo 104 / 111 40% 1 04.02.2028 -
Nhoa Sangui Chamois Niortais Activo 121 / 132 40% 1 04.02.2028 -
Amath N'Diaye Valladolid Activo 128 / 128 40% 1 03.02.2028 -
Jesús Rodríguez Como Activo 143 / 155 40% 1 03.02.2028 -
Kauã Moraes Cruzeiro Activo 134 / 139 40% 6 02.02.2028 -
Ronan Kpakio Cardiff City Activo 133 / 136 40% 5 02.02.2028 -
Marcelo Allende Mamelodi Sundowns Activo 143 / 138 40% 1 01.02.2028 -
Brais Méndez Columbus Crew Activo 149 / 143 40% 1 01.02.2028 -
Avery Appiah Ajax Activo 127 / 132 40% 3 30.01.2028 -
Jofre Torrents Ajax Activo 137 / 139 40% 6 30.01.2028 -
Izan Merino Málaga Activo 122 / 132 40% 3 29.01.2028 -
Daniel Banjaqui Benfica Activo 124 / 129 40% 1 29.01.2028 -
Keagan Phiri Platinum Stars Activo 108 / 105 40% 1 24.01.2028 -
Luis Otávio Colorado Rapids Activo 108 / 124 40% 3 19.01.2028 -
Giovanni Leoni Bradford City Activo 145 / 144 40% 2 19.01.2028 -
Juan Morán Godoy Cruz Activo 98 / 108 40% 3 17.01.2028 -
Juan Galeano Konyaspor Activo 103 / 117 69% 1 17.01.2028 Aprobar
Louis Leroux FC Nantes Activo 143 / 135 40% 1 17.01.2028 -
Jaydee Canvot AJ Auxerre Activo 148 / 139 40% 3 30.12.2027 -
João Simões Sporting CP Activo 144 / 136 40% 2 29.12.2027 -
Sebastián Ramírez Jaguares Activo 101 / 122 40% 2 28.12.2027 -
Mikkel Hope Haugesund Activo 97 / 99 40% 2 23.12.2027 -
Dmitry Pestryakov Dinamo Moscow Activo 113 / 120 40% 2 21.12.2027 -
Caleb Yirenkyi Coventry City Activo 153 / 138 40% 5 20.12.2027 -
Nejc Viher NK Maribor Activo 117 / 130 40% 2 20.12.2027 -
Josh Nichols Tranmere Rovers Activo 123 / 120 40% 5 16.12.2027 -
Tobias Moi Bodo/Glimt Activo 113 / 107 40% 1 15.12.2027 -
Celías Ingenthron Vélez Activo 105 / 132 40% 3 14.12.2027 -
Fillip Jenssen Riise Stabaek Activo 95 / 105 40% 3 09.12.2027 -
Gonçalo Oliveira Benfica Activo 107 / 119 40% 1 09.12.2027 -
Edvard Pettersen Sandefjord Activo 98 / 104 40% 3 05.12.2027 -
Olivier Mambwa Young Boys Activo 98 / 125 40% 3 04.12.2027 -
Taylan Bulut Umraniyespor Activo 123 / 126 40% 2 03.12.2027 -
Joe Johnson Barnet Activo 99 / 107 40% 1 03.12.2027 -
Juan Giménez Celta Activo 121 / 129 40% 1 01.12.2027 -
Alpha Touré FC Metz Activo 118 / 124 40% 1 30.11.2027 -
Hervin Goyes Deportivo Pasto Activo 105 / 107 40% 3 29.11.2027 -
Matteo Pérez Vinlöf Dinamo Zagreb Activo 135 / 133 40% 4 20.11.2027 -
Agustín Obregón River Plate Activo 114 / 128 40% 2 11.11.2027 -
Felipe Obradovich Ferro Carril Oeste Activo 108 / 124 40% 2 08.11.2027 -
Julián Bazán Philadelphia Union Activo 105 / 114 40% 1 08.11.2027 -
Saba Kharebashvili LOSC Lille Activo 129 / 134 40% 3 07.11.2027 -
David Valencia Alianza Petrolera Activo 138 / 121 40% 2 06.11.2027 -
Malick Yalcouyé Brighton Activo 134 / 129 40% 1 30.10.2027 -
Dylan Gorosito Villarreal Activo 123 / 121 40% 1 30.10.2027 -
Tiago Parente Benfica Activo 117 / 119 40% 1 23.10.2027 -
Jens Hjertø-Dahl Hull City Activo 134 / 123 40% 2 22.10.2027 -
Martim Fernandes Porto Activo 131 / 144 40% 1 22.10.2027 -
Matthew Litherland Rotherham United Activo 110 / 127 40% 1 20.10.2027 -
Mauro Carrizo Atlético Tucumán Activo 111 / 113 40% 1 19.10.2027 -
Dayann Methalie Aston Villa Activo 135 / 142 40% 1 12.10.2027 -
Yannick Geiger IFK Norrkoping Activo 99 / 112 40% 1 08.10.2027 -
Pedro Soma San Diego Football Club Activo 103 / 117 40% 1 08.10.2027 -
Frankie Westfield Philadelphia Union Activo 96 / 117 40% 1 07.10.2027 -
Martín Jiménez Audax Italiano Activo 91 / 96 40% 1 06.10.2027 -
Brandon Powell Wigan Athletic Activo 106 / 116 40% 1 05.10.2027 -
Martin Georgiev Aris Thessaloniki Activo 106 / 116 40% 1 23.08.2027 -
Romuald Sawadogo Hapoel Raanana Activo 91 / 101 40% 1 23.08.2027 -
Dejan Joveljić Seattle Sounders Activo 122 / 137 40% 1 16.08.2027 -
Hany Mukhtar Spezia Activo 141 / 143 40% 1 16.08.2027 -
James Trafford Leeds United Activo 157 / 144 40% 1 26.07.2027 -
Michael Cooper Sheffield United Activo 124 / 144 40% 1 26.07.2027 -
Dean Henderson Crystal Palace Activo 145 / 144 40% 1 26.07.2027 -
Jack Rudoni Coventry City Activo 137 / 133 40% 1 31.05.2027 -
Sam Bell Bristol City Activo 124 / 113 40% 2 30.05.2027 -
Callum Brittain Middlesbrough Activo 121 / 137 40% 1 30.05.2027 -
Derry Murkin Derby County Activo 140 / 119 40% 1 30.05.2027 -
Mathias Jørgensen Blackburn Rovers Activo 129 / 110 40% 1 30.05.2027 -
Noah Sadiki Sunderland Activo 150 / 156 40% 3 28.05.2027 -
Christopher Opéri Basaksehir Activo 124 / 132 40% 1 28.05.2027 -
Mateo Pellegrino Fiorentina Activo 143 / 147 40% 3 27.05.2027 -
Zakaria Aboukhlal Torino Activo 140 / 142 40% 1 26.05.2027 -
Harry Leonard Peterborough United Activo 105 / 105 40% 1 26.05.2027 -
Nicolas Madsen Queens Park Rangers Activo 135 / 119 40% 2 25.05.2027 -
Welington Southampton Activo 128 / 123 40% 4 23.05.2027 -
Luke Shaw Manchester United Activo 163 / 142 40% 1 23.05.2027 -
Lewis Ferguson Bologna Activo 132 / 139 40% 3 19.05.2027 -
Callum Doyle Wrexham Activo 135 / 135 40% 1 19.05.2027 -
Florentino Luís Ipswich Town Activo 147 / 143 40% 3 18.05.2027 -
Will Lankshear Middlesbrough Activo 133 / 126 40% 2 17.05.2027 -
Yousef Salech Cardiff City Activo 121 / 116 40% 6 17.05.2027 -
Dom Ballard Leyton Orient Activo 111 / 114 40% 3 16.05.2027 -
Ilyas Ansah Hull City Activo 136 / 128 40% 2 16.05.2027 -
Ahmed Kutucu Konyaspor Activo 127 / 115 40% 2 16.05.2027 -
Tom Cannon Sheffield United Activo 129 / 133 40% 4 10.05.2027 -
Dávid Strelec Middlesbrough Activo 143 / 141 40% 2 10.05.2027 -
Tommy Conway Middlesbrough Activo 138 / 135 40% 3 10.05.2027 -
Nicolò Zaniolo Udinese Activo 154 / 148 40% 3 09.05.2027 -
Bojan Radulović Huddersfield Town Activo 114 / 117 40% 1 09.05.2027 -
Igor Burnley Activo 139 / 142 40% 3 07.05.2027 -
Nathan Collins Brentford Activo 155 / 140 40% 1 07.05.2027 -
Pedro Porro Tottenham Activo 147 / 156 40% 1 06.05.2027 -
Toby Collyer West Bromwich Albion Activo 135 / 137 40% 1 06.05.2027 -
Niall Ennis Blackpool Activo 101 / 122 40% 3 05.05.2027 -
Zeki Amdouni Burnley Activo 140 / 136 40% 2 05.05.2027 -
Pablo Felipe West Ham United Activo 125 / 142 40% 2 04.05.2027 -
Jack Hinshelwood Brighton Activo 156 / 139 40% 1 30.04.2027 -
Shea Charles Southampton Activo 135 / 138 40% 1 30.04.2027 -
Kyle Walker-Peters West Ham United Activo 127 / 142 40% 1 28.04.2027 -
Orkun Kökçü Besiktas Activo 146 / 145 40% 4 26.04.2027 -
Leon Goretzka Aston Villa Activo 158 / 151 40% 2 26.04.2027 -
Luke McNally Bristol City Activo 119 / 125 40% 1 26.04.2027 -
Anel Ahmedhodžić Burnley Activo 130 / 146 40% 2 24.04.2027 -
Nordi Mukiele Sunderland Activo 149 / 147 40% 1 24.04.2027 -
Tiago Djaló Besiktas Activo 140 / 129 40% 2 23.04.2027 -
Soungoutou Magassa West Ham United Activo 136 / 137 40% 1 23.04.2027 -
Alfie Doughty Millwall Activo 127 / 127 40% 1 19.04.2027 -
Paik Seung-Ho Birmingham Activo 130 / 120 40% 1 19.04.2027 -
Luis Vázquez Birmingham Activo 140 / 133 40% 2 18.04.2027 -
Wilson Isidor Sunderland Activo 145 / 135 40% 2 18.04.2027 -
Amir Murillo Besiktas Activo 129 / 139 40% 1 18.04.2027 -
Alessio Romagnoli Lazio Activo 152 / 141 40% 1 17.04.2027 -
Nuno Tavares Lazio Activo 144 / 150 40% 1 17.04.2027 -
Max Bird Birmingham Activo 127 / 123 40% 2 14.04.2027 -
Christian Saydee Wigan Athletic Activo 120 / 121 40% 1 14.04.2027 -
Aune Heggebø West Bromwich Albion Activo 118 / 134 40% 1 14.04.2027 -
Ronnie Edwards Queens Park Rangers Activo 121 / 132 40% 1 14.04.2027 -
Dwight McNeil Crystal Palace Activo 146 / 137 40% 1 12.04.2027 -
Harry Clarke Preston Activo 129 / 130 40% 2 06.04.2027 -
Aidan Morris Middlesbrough Activo 127 / 135 40% 2 05.04.2027 -
Japhet Tanganga Sheffield United Activo 137 / 136 40% 1 05.04.2027 -
Ethan Galbraith Swansea City Activo 132 / 140 40% 1 04.04.2027 -
Morgan Whittaker Middlesbrough Activo 129 / 128 40% 1 02.04.2027 -
Azor Matusiwa Ipswich Town Activo 128 / 127 40% 1 02.04.2027 -
Andrea Pinamonti Lazio Activo 149 / 138 40% 2 31.03.2027 -
Gabriel Gudmundsson Leeds United Activo 154 / 143 40% 1 31.03.2027 -
Tim Jabol-Folcarelli Kayserispor Activo 139 / 133 40% 1 29.03.2027 -
Jordan Lotomba Bloemfontein Celtic Activo 128 / 127 40% 1 29.03.2027 -
Leif Davis Ipswich Town Activo 131 / 145 40% 1 28.03.2027 -
Edoardo Bove Watford Activo 136 / 138 40% 1 28.03.2027 -
Carlos Augusto Inter Activo 151 / 140 40% 1 27.03.2027 -
Lucas Da Cunha Como Activo 149 / 149 40% 1 26.03.2027 -
Milan van Ewijk Mansfield Town Activo 127 / 128 40% 1 25.03.2027 -
Dara O'Shea Ipswich Town Activo 128 / 136 40% 1 24.03.2027 -
Tyreece Campbell Charlton Athletic Activo 117 / 111 40% 1 20.03.2027 -
Tamerlan Musaev CSKA Moscow Activo 132 / 127 40% 1 16.03.2027 -
Andri Guðjohnsen Blackburn Rovers Activo 126 / 131 40% 2 11.03.2027 -
Deniz Gül Galatasaray Activo 127 / 138 40% 1 11.03.2027 -
Brian Brobbey Sunderland Activo 144 / 140 40% 1 09.03.2027 -
Bradley Fink Wycombe Wanderers Activo 95 / 120 40% 2 08.03.2027 -
Mandla Mahlangu Ajax Cape Town Activo 115 / 107 40% 1 08.03.2027 -
Tyrese Campbell Sheffield United Activo 122 / 127 40% 3 05.03.2027 -
Etiosa Ighodaro Kaizer Chiefs Activo 122 / 118 40% 1 05.03.2027 -
Richard Koné Queens Park Rangers Activo 124 / 132 40% 1 26.02.2027 -
Noah Okafor Leeds United Activo 136 / 131 40% 1 20.02.2027 -
Danyil Alefirenko Chornomorets Activo 100 / 111 40% 1 18.02.2027 -
Cédric Don Maccabi Haifa Activo 134 / 136 40% 1 12.02.2027 -
Lorent Tolaj Plymouth Argyle Activo 133 / 109 40% 1 10.02.2027 -
Jens Odgaard Bologna Activo 147 / 140 40% 1 06.02.2027 -
Abu Kamara Portsmouth Activo 120 / 130 40% 1 06.02.2027 -
Aleksandar Pešić Fatih Karagumruk Activo 108 / 111 69% 1 01.01.2027 Aprobar
Santiago Sosa Yung Sevilla Activo 126 / 119 40% 1 31.12.2026 -
Arjan Malić Sturm Graz Activo 109 / 133 40% 1 31.12.2026 -
Lautaro Giannetti Antalyaspor Activo 112 / 120 65% 1 24.08.2026 Aprobar
Jason Steele Brighton Activo 148 / 128 40% 1 02.08.2026 -